Time;durP1;ratioP1;P1;durP2;ratioP2;P2;SDS_P1;SDS_P2;PMS_P1;PMS_P2;Temp;Humidity;BMP_temperature;BMP_pressure;BME280_temperature;BME280_humidity;BME280_pressure;Samples;Min_cycle;Max_cycle;Signal;HPM_P1;HPM_P2
2023/05/06 00:02:25;;;;;;;7.53;6.07;;;;;;;17.15;47.84;98984.50;5029122;28;20041;-75
2023/05/06 00:04:51;;;;;;;7.28;6.10;;;;;;;17.10;48.27;98986.72;5029542;28;20099;-75
2023/05/06 00:07:18;;;;;;;9.20;6.40;;;;;;;17.04;48.57;98981.91;5029499;28;20060;-74
2023/05/06 00:09:44;;;;;;;7.47;6.75;;;;;;;16.78;48.15;98939.53;5028576;28;20026;-75
2023/05/06 00:12:11;;;;;;;10.27;6.35;;;;;;;17.06;48.30;98991.50;5029409;28;20057;-74
2023/05/06 00:14:38;;;;;;;14.90;6.68;;;;;;;17.07;48.06;98985.16;5029614;28;20104;-75
2023/05/06 00:17:06;;;;;;;6.95;6.18;;;;;;;17.05;48.85;98991.63;5029590;28;20041;-74
2023/05/06 00:19:33;;;;;;;8.38;5.95;;;;;;;17.03;48.56;98991.78;5028256;28;20392;-74
2023/05/06 00:22:00;;;;;;;9.60;5.78;;;;;;;17.02;48.82;98990.06;5028406;28;20050;-74
2023/05/06 00:24:27;;;;;;;6.50;5.78;;;;;;;17.01;48.76;98996.41;5028356;28;20045;-75
2023/05/06 00:26:53;;;;;;;7.15;5.40;;;;;;;16.99;48.50;98993.03;5028290;28;20046;-75
2023/05/06 00:29:20;;;;;;;7.13;5.93;;;;;;;16.84;48.54;98967.59;5028254;28;20297;-75
2023/05/06 00:31:47;;;;;;;7.68;6.05;;;;;;;16.96;49.00;98996.81;5028167;28;20042;-75
2023/05/06 00:34:15;;;;;;;7.97;5.95;;;;;;;16.91;49.22;98993.69;5028130;28;20041;-74
2023/05/06 00:36:42;;;;;;;6.85;5.75;;;;;;;16.90;48.73;98999.19;5029096;28;20252;-75
2023/05/06 00:39:09;;;;;;;6.60;5.50;;;;;;;16.92;48.64;99023.97;5028887;28;20042;-75
2023/05/06 00:41:36;;;;;;;6.60;5.80;;;;;;;16.67;49.15;99026.09;5029125;28;20068;-75
2023/05/06 00:44:03;;;;;;;7.95;5.88;;;;;;;16.84;49.51;99099.56;5028785;28;20124;-74
2023/05/06 00:46:30;;;;;;;7.78;5.28;;;;;;;16.58;49.63;99024.16;5027987;28;20121;-75
2023/05/06 00:48:57;;;;;;;10.73;6.35;;;;;;;16.84;49.26;99066.63;5028767;28;20041;-74
2023/05/06 00:51:26;;;;;;;7.00;5.43;;;;;;;16.59;49.31;99044.59;5028642;28;20109;-74
2023/05/06 00:53:52;;;;;;;6.60;5.80;;;;;;;16.85;49.42;99062.97;5028923;28;20348;-74
2023/05/06 00:56:19;;;;;;;8.52;6.28;;;;;;;16.88;48.91;99066.22;5029207;28;20038;-74
2023/05/06 00:58:46;;;;;;;7.00;5.95;;;;;;;16.87;48.95;99059.16;5028740;28;20068;-74
2023/05/06 01:01:12;;;;;;;6.07;5.22;;;;;;;16.61;49.38;99023.91;5027625;28;20037;-74
2023/05/06 01:03:39;;;;;;;7.53;5.60;;;;;;;16.86;49.47;99067.34;5027576;28;20042;-75
2023/05/06 01:06:14;;;;;;;6.07;5.50;;;;;;;16.85;50.01;99063.81;5028706;28;20186;-74
2023/05/06 01:08:53;;;;;;;5.53;4.93;;;;;;;16.86;50.31;99056.63;5028363;28;20042;-75
2023/05/06 01:11:27;;;;;;;7.63;5.13;;;;;;;16.64;50.00;99009.41;5027383;28;20306;-75
2023/05/06 01:14:00;;;;;;;6.80;4.75;;;;;;;16.85;49.78;99054.94;5028092;28;20037;-76
2023/05/06 01:16:29;;;;;;;8.07;6.73;;;;;;;16.84;49.39;99051.41;5027408;28;20042;-75
2023/05/06 01:18:59;;;;;;;7.68;5.63;;;;;;;16.83;49.75;99048.84;5028172;28;20468;-75
2023/05/06 01:21:33;;;;;;;6.00;4.65;;;;;;;16.83;49.33;99049.72;5028614;28;20186;-76
2023/05/06 01:24:02;;;;;;;5.57;4.32;;;;;;;16.67;49.84;99028.75;5028665;28;20053;-76
2023/05/06 01:26:29;;;;;;;4.75;4.25;;;;;;;16.81;49.49;99046.31;5027242;28;20202;-76
2023/05/06 01:29:00;;;;;;;5.90;4.15;;;;;;;16.80;49.89;99046.44;5027951;28;20042;-75
2023/05/06 01:31:33;;;;;;;5.38;4.10;;;;;;;16.79;50.01;99044.75;5027819;28;20049;-76
2023/05/06 01:34:12;;;;;;;4.95;3.65;;;;;;;16.78;50.69;99045.72;5027891;28;20076;-75
2023/05/06 01:36:54;;;;;;;7.85;3.78;;;;;;;16.77;51.14;99044.03;5026988;28;20153;-75
2023/05/06 01:39:26;;;;;;;6.68;3.72;;;;;;;16.76;50.71;99043.19;5026953;28;20042;-76
2023/05/06 01:41:58;;;;;;;4.30;3.00;;;;;;;16.77;50.55;99052.06;5027717;28;20049;-76
2023/05/06 01:44:27;;;;;;;5.35;3.00;;;;;;;16.76;51.14;99055.72;5027695;28;20042;-76
2023/05/06 01:46:56;;;;;;;6.15;3.35;;;;;;;16.64;50.52;99037.03;5027592;28;20237;-75
2023/05/06 01:49:24;;;;;;;4.65;3.35;;;;;;;16.77;50.99;99060.09;5027380;28;20048;-75
2023/05/06 01:51:53;;;;;;;4.65;2.30;;;;;;;16.30;50.90;98976.66;5026641;28;20084;-75
2023/05/06 01:54:20;;;;;;;4.30;2.47;;;;;;;16.77;50.83;99050.22;5027482;28;20044;-75
2023/05/06 01:56:48;;;;;;;3.20;1.88;;;;;;;16.77;50.96;99052.06;5027796;28;20254;-76
2023/05/06 01:59:15;;;;;;;3.40;1.70;;;;;;;16.54;51.23;99004.00;5026570;28;20045;-75
2023/05/06 02:01:42;;;;;;;4.47;1.73;;;;;;;16.81;51.43;99054.34;5026536;28;20255;-76
2023/05/06 02:04:08;;;;;;;3.72;1.70;;;;;;;16.81;51.02;99040.97;5027888;28;20046;-75
2023/05/06 02:06:35;;;;;;;3.28;1.77;;;;;;;16.80;51.24;99039.25;5027564;28;20189;-75
2023/05/06 02:09:02;;;;;;;2.75;1.60;;;;;;;16.59;51.70;99003.59;5010235;28;20046;-75
2023/05/06 02:11:28;;;;;;;2.95;1.67;;;;;;;16.82;51.32;99033.78;5027582;28;20034;-75
2023/05/06 02:13:57;;;;;;;2.35;1.23;;;;;;;16.83;51.42;99033.66;5026352;28;20046;-75
2023/05/06 02:16:27;;;;;;;2.40;1.45;;;;;;;16.83;51.47;99025.63;5026302;28;20205;-75
2023/05/06 02:18:54;;;;;;;2.70;1.50;;;;;;;16.83;51.57;99036.31;5026835;28;20052;-76
2023/05/06 02:21:21;;;;;;;2.45;1.58;;;;;;;16.82;51.67;99031.94;5027563;28;20080;-76
2023/05/06 02:23:48;;;;;;;2.55;1.40;;;;;;;16.81;51.55;99032.94;5027323;28;20058;-75
2023/05/06 02:26:15;;;;;;;3.40;1.42;;;;;;;16.84;51.52;99037.16;5025888;28;20041;-75
2023/05/06 02:28:42;;;;;;;2.10;1.30;;;;;;;16.84;52.07;99029.16;5026042;28;20305;-74
2023/05/06 02:31:14;;;;;;;2.03;1.30;;;;;;;16.84;52.48;99032.66;5027055;28;20240;-74
2023/05/06 02:33:41;;;;;;;2.60;1.30;;;;;;;16.85;51.67;99034.38;5026487;28;20042;-75
2023/05/06 02:36:08;;;;;;;3.15;1.55;;;;;;;16.87;52.01;99036.91;5027019;28;20034;-74
2023/05/06 02:38:34;;;;;;;2.70;1.40;;;;;;;16.85;51.72;99033.50;5025821;28;20100;-75
2023/05/06 02:41:01;;;;;;;2.30;1.40;;;;;;;16.83;51.83;99033.66;5027162;28;20088;-74
2023/05/06 02:43:28;;;;;;;2.15;1.15;;;;;;;16.81;52.24;99034.75;5026900;28;20225;-75
2023/05/06 02:45:55;;;;;;;2.90;1.52;;;;;;;16.80;52.42;99025.03;5027085;28;20053;-75
2023/05/06 02:48:23;;;;;;;2.33;1.52;;;;;;;16.82;52.17;99029.28;5027068;28;20210;-75
2023/05/06 02:50:51;;;;;;;2.50;1.38;;;;;;;16.83;52.05;99025.63;5026672;28;20037;-75
2023/05/06 02:53:17;;;;;;;1.83;1.20;;;;;;;16.84;52.25;99023.78;5025607;28;20209;-75
2023/05/06 02:55:44;;;;;;;2.55;1.40;;;;;;;16.85;51.93;99033.50;5026836;28;20052;-75
2023/05/06 02:58:11;;;;;;;2.38;1.20;;;;;;;16.84;51.99;99034.50;5026348;28;20045;-75
2023/05/06 03:00:37;;;;;;;2.22;1.27;;;;;;;16.83;52.30;99033.66;5026594;28;20108;-75
2023/05/06 03:03:04;;;;;;;1.77;1.20;;;;;;;16.70;52.39;99003.56;5025438;28;20088;-75
2023/05/06 03:05:32;;;;;;;2.47;1.67;;;;;;;16.82;52.65;99026.59;5026219;28;20045;-74
2023/05/06 03:07:59;;;;;;;1.80;1.20;;;;;;;16.83;52.54;99027.44;5026242;28;20049;-74
2023/05/06 03:10:26;;;;;;;1.83;1.20;;;;;;;16.81;52.29;99027.59;5026073;28;20133;-75
2023/05/06 03:12:52;;;;;;;2.78;1.20;;;;;;;16.83;52.29;99024.78;5026655;28;20041;-75
2023/05/06 03:15:19;;;;;;;2.40;1.48;;;;;;;16.80;52.51;99023.22;5026111;28;20108;-75
2023/05/06 03:17:46;;;;;;;2.40;1.20;;;;;;;16.80;52.51;99017.84;5026349;28;20042;-74
2023/05/06 03:20:13;;;;;;;2.17;1.20;;;;;;;16.81;52.74;99027.59;5025680;28;20104;-75
2023/05/06 03:22:41;;;;;;;2.00;1.50;;;;;;;16.80;52.32;99023.22;5026028;28;20050;-75
2023/05/06 03:25:09;;;;;;;1.92;1.20;;;;;;;16.81;52.71;99032.94;5025118;28;20088;-75
2023/05/06 03:27:35;;;;;;;1.98;1.48;;;;;;;16.79;52.29;99032.22;5025096;28;20041;-75
2023/05/06 03:30:02;;;;;;;1.77;1.20;;;;;;;16.79;52.36;99037.56;5025004;28;20046;-75
2023/05/06 03:32:29;;;;;;;2.75;1.30;;;;;;;16.81;52.41;99032.09;5024951;28;20061;-75
2023/05/06 03:34:56;;;;;;;2.33;1.35;;;;;;;16.82;52.42;99031.94;5025023;28;20034;-75
2023/05/06 03:37:22;;;;;;;2.50;1.27;;;;;;;16.80;52.67;99038.41;5024577;28;20088;-75
2023/05/06 03:39:51;;;;;;;2.65;1.60;;;;;;;16.81;52.56;99040.13;5008812;28;20068;-75
2023/05/06 03:42:17;;;;;;;2.65;1.20;;;;;;;16.79;52.67;99029.53;5026257;28;20065;-74
2023/05/06 03:44:44;;;;;;;2.03;1.30;;;;;;;16.78;52.61;99033.19;5025661;28;20054;-74
2023/05/06 03:47:11;;;;;;;3.05;1.35;;;;;;;16.14;52.92;98929.00;5024824;28;20042;-75
2023/05/06 03:49:38;;;;;;;2.20;1.30;;;;;;;16.80;53.12;99036.59;5024775;28;20123;-75
2023/05/06 03:52:05;;;;;;;2.00;1.20;;;;;;;16.80;52.83;99041.09;5026020;28;20049;-75
2023/05/06 03:54:31;;;;;;;1.73;1.20;;;;;;;16.80;52.99;99039.25;5025749;28;20041;-75
2023/05/06 03:57:00;;;;;;;3.05;1.95;;;;;;;16.79;52.93;99042.91;5024687;28;20341;-75
2023/05/06 03:59:26;;;;;;;2.30;1.50;;;;;;;16.77;53.12;99047.56;5024685;28;20092;-75
2023/05/06 04:01:53;;;;;;;5.47;1.30;;;;;;;16.77;53.16;99044.03;5025739;28;20045;-75
2023/05/06 04:04:20;;;;;;;2.10;1.20;;;;;;;16.77;53.47;99046.72;5025359;28;20305;-75
2023/05/06 04:06:46;;;;;;;2.03;1.27;;;;;;;16.49;52.99;99000.03;5024645;28;20108;-75
2023/05/06 04:09:13;;;;;;;2.50;1.30;;;;;;;16.78;53.43;99049.25;5025739;28;20053;-75
2023/05/06 04:11:40;;;;;;;2.95;1.45;;;;;;;16.67;53.38;99044.81;5025904;28;20045;-75
2023/05/06 04:14:08;;;;;;;2.28;1.33;;;;;;;16.79;53.42;99056.31;5025992;28;20206;-75
2023/05/06 04:16:35;;;;;;;1.83;1.27;;;;;;;16.80;52.96;99052.66;5025724;28;20052;-75
2023/05/06 04:19:02;;;;;;;3.78;1.50;;;;;;;16.80;53.52;99052.66;5025479;28;20056;-75
2023/05/06 04:21:30;;;;;;;2.35;1.27;;;;;;;16.81;53.29;99058.84;5025395;28;20070;-75
2023/05/06 04:23:56;;;;;;;2.25;1.30;;;;;;;16.70;53.15;99043.72;5024537;28;20038;-75
2023/05/06 04:26:23;;;;;;;2.65;1.30;;;;;;;16.82;53.26;99063.22;5025508;28;20104;-75
2023/05/06 04:28:50;;;;;;;2.50;1.20;;;;;;;16.83;53.18;99071.13;5024670;28;20061;-75
2023/05/06 04:31:18;;;;;;;1.80;1.15;;;;;;;16.83;53.24;99057.75;5025665;28;20042;-76
2023/05/06 04:33:45;;;;;;;2.25;1.42;;;;;;;16.83;53.33;99063.09;5025726;28;20046;-75
2023/05/06 04:36:12;;;;;;;2.15;1.23;;;;;;;16.84;53.46;99070.13;5025020;28;20061;-75
2023/05/06 04:38:38;;;;;;;2.38;1.40;;;;;;;16.85;53.13;99071.84;5024343;28;20324;-75
2023/05/06 04:41:05;;;;;;;2.70;1.42;;;;;;;16.89;53.56;99077.78;5025596;28;20046;-75
2023/05/06 04:43:32;;;;;;;2.47;1.40;;;;;;;16.88;53.25;99073.41;5024357;28;20041;-76
2023/05/06 04:45:59;;;;;;;2.55;1.50;;;;;;;16.89;53.29;99078.63;5024308;28;20045;-76
2023/05/06 04:48:27;;;;;;;2.10;1.30;;;;;;;16.88;53.95;99082.28;5026923;28;20042;-75
2023/05/06 04:50:54;;;;;;;2.65;1.50;;;;;;;16.89;53.87;99075.94;5028939;28;20053;-75
2023/05/06 04:53:20;;;;;;;3.00;1.55;;;;;;;16.90;54.18;99090.19;5029193;28;20060;-75
2023/05/06 04:55:47;;;;;;;2.70;1.58;;;;;;;16.78;54.41;99064.47;5029130;28;20184;-75
2023/05/06 04:58:14;;;;;;;2.00;1.33;;;;;;;16.88;54.75;99089.47;5028541;28;20060;-75
2023/05/06 05:00:41;;;;;;;2.67;1.50;;;;;;;16.87;54.83;99091.28;5029069;28;20281;-75
2023/05/06 05:03:07;;;;;;;2.92;1.77;;;;;;;16.86;54.38;99088.75;5026799;28;20289;-75
2023/05/06 05:05:36;;;;;;;2.00;1.30;;;;;;;16.88;54.98;99102.84;5028679;28;20336;-75
2023/05/06 05:08:02;;;;;;;2.08;1.30;;;;;;;16.88;54.81;99097.50;5028261;28;20046;-75
2023/05/06 05:10:29;;;;;;;3.40;1.42;;;;;;;16.89;54.88;99097.34;5028905;28;20100;-75
2023/05/06 05:12:56;;;;;;;3.13;1.70;;;;;;;16.87;54.68;99107.34;5027932;28;20198;-75
2023/05/06 05:15:23;;;;;;;2.92;1.40;;;;;;;16.84;55.11;99104.94;5027501;28;20042;-75
2023/05/06 05:17:50;;;;;;;2.90;1.58;;;;;;;16.74;54.72;99089.78;5028569;28;20056;-76
2023/05/06 05:20:17;;;;;;;2.70;1.50;;;;;;;16.84;54.93;99102.25;5027526;28;20117;-75
2023/05/06 05:22:45;;;;;;;2.70;1.55;;;;;;;16.34;55.55;99035.09;5027330;28;20042;-75
2023/05/06 05:25:11;;;;;;;3.33;1.50;;;;;;;16.60;55.27;99061.50;5028668;28;20038;-76
2023/05/06 05:27:38;;;;;;;2.33;1.30;;;;;;;16.81;55.47;99104.34;5027208;28;20046;-75
2023/05/06 05:30:06;;;;;;;2.15;1.35;;;;;;;16.79;55.44;99103.63;5028006;28;20045;-74
2023/05/06 05:32:33;;;;;;;2.28;1.52;;;;;;;16.78;55.64;99107.28;5028191;28;20046;-75
2023/05/06 05:35:00;;;;;;;2.30;1.70;;;;;;;16.76;56.03;99107.41;5027916;28;20053;-75
2023/05/06 05:37:27;;;;;;;2.55;1.40;;;;;;;16.73;55.79;99110.34;5027790;28;20049;-75
2023/05/06 05:39:55;;;;;;;2.60;1.60;;;;;;;16.73;55.98;99113.03;5026915;28;20041;-76
2023/05/06 05:42:22;;;;;;;2.45;1.38;;;;;;;16.76;55.68;99112.75;5027721;28;20100;-75
2023/05/06 05:44:49;;;;;;;2.53;1.60;;;;;;;16.79;55.82;99109.81;5027618;28;20257;-75
2023/05/06 05:47:16;;;;;;;2.90;1.60;;;;;;;16.58;55.75;99083.03;5027442;28;20043;-76
2023/05/06 05:49:42;;;;;;;2.55;1.55;;;;;;;16.79;55.85;99123.22;5027529;28;20064;-76
2023/05/06 05:52:09;;;;;;;2.75;1.70;;;;;;;16.57;55.93;99092.03;5026643;28;20080;-75
2023/05/06 05:54:36;;;;;;;2.53;1.60;;;;;;;16.78;55.92;99126.84;5026530;28;20241;-75
2023/05/06 05:57:04;;;;;;;2.90;1.80;;;;;;;16.80;56.66;99137.44;5027680;28;20104;-75
2023/05/06 05:59:31;;;;;;;3.80;2.00;;;;;;;16.80;56.65;99132.94;5026042;28;20069;-76
2023/05/06 06:01:58;;;;;;;3.67;1.75;;;;;;;16.81;56.51;99128.44;5027088;28;20038;-75
2023/05/06 06:04:25;;;;;;;2.95;1.80;;;;;;;16.77;56.02;99127.84;5027911;28;20049;-75
2023/05/06 06:06:52;;;;;;;3.63;2.15;;;;;;;16.82;56.10;99125.63;5026363;28;20049;-75
2023/05/06 06:09:19;;;;;;;3.20;2.03;;;;;;;16.82;55.92;99130.13;5027501;28;20042;-76
2023/05/06 06:11:46;;;;;;;3.17;1.80;;;;;;;16.82;56.31;99125.63;5027359;28;20042;-75
2023/05/06 06:14:15;;;;;;;2.92;1.70;;;;;;;16.83;56.38;99126.47;5026293;28;20046;-75
2023/05/06 06:16:41;;;;;;;3.13;2.08;;;;;;;16.84;55.94;99122.81;5026191;28;20233;-75
2023/05/06 06:19:08;;;;;;;5.22;3.08;;;;;;;16.38;56.63;99046.41;5027064;28;20061;-76
2023/05/06 06:21:35;;;;;;;3.05;1.95;;;;;;;16.81;56.49;99123.94;5027007;28;20042;-76
2023/05/06 06:24:02;;;;;;;4.30;2.50;;;;;;;16.83;56.40;99124.66;5026087;28;20045;-76
2023/05/06 06:26:29;;;;;;;3.30;2.15;;;;;;;16.82;56.61;99120.28;5026844;28;20034;-76
2023/05/06 06:28:56;;;;;;;6.05;2.20;;;;;;;16.83;56.64;99130.00;5027436;28;20046;-75
2023/05/06 06:31:24;;;;;;;2.83;1.80;;;;;;;16.85;56.30;99125.38;5027343;28;20038;-76
2023/05/06 06:33:51;;;;;;;4.53;2.60;;;;;;;16.93;56.62;99132.75;5025981;28;20279;-75
2023/05/06 06:36:18;;;;;;;4.15;2.50;;;;;;;16.97;56.18;99132.34;5027319;28;20112;-75
2023/05/06 06:38:44;;;;;;;3.03;2.13;;;;;;;17.03;56.11;99133.66;5027220;28;20046;-76
2023/05/06 06:41:11;;;;;;;3.10;2.17;;;;;;;17.08;55.86;99139.47;5027247;28;20042;-75
2023/05/06 06:43:38;;;;;;;3.33;1.90;;;;;;;17.15;55.99;99139.78;5025782;28;20042;-75
2023/05/06 06:46:04;;;;;;;2.97;2.00;;;;;;;17.23;55.85;99140.88;5026843;28;20037;-75
2023/05/06 06:48:33;;;;;;;2.92;1.90;;;;;;;17.36;55.16;99134.44;5026730;28;20075;-75
2023/05/06 06:50:59;;;;;;;4.28;1.75;;;;;;;17.34;55.25;99115.84;5025681;28;20038;-75
2023/05/06 06:53:26;;;;;;;3.05;2.00;;;;;;;17.53;55.14;99134.69;5025775;28;20201;-75
2023/05/06 06:55:53;;;;;;;2.80;1.90;;;;;;;17.60;55.03;99141.22;5026848;28;20052;-75
2023/05/06 06:58:20;;;;;;;3.30;2.00;;;;;;;17.66;54.72;99141.69;5026590;28;20216;-75
2023/05/06 07:00:46;;;;;;;2.92;1.90;;;;;;;17.53;54.72;99115.09;5026716;28;20104;-75
2023/05/06 07:03:14;;;;;;;2.85;1.65;;;;;;;17.12;54.86;99098.06;5026707;28;20038;-75
2023/05/06 07:05:44;;;;;;;3.70;2.33;;;;;;;17.77;54.72;99142.44;5024934;28;20084;-75
2023/05/06 07:08:11;;;;;;;4.10;2.60;;;;;;;17.80;54.58;99139.47;5026423;28;20042;-75
2023/05/06 07:10:38;;;;;;;3.70;2.00;;;;;;;17.84;54.44;99130.19;5024701;28;20048;-75
2023/05/06 07:13:04;;;;;;;4.30;1.80;;;;;;;15.81;53.92;98776.84;5026437;28;20046;-75
2023/05/06 07:15:31;;;;;;;3.55;2.17;;;;;;;18.03;53.93;99131.22;5025212;28;20042;-76
2023/05/06 07:17:58;;;;;;;3.10;1.90;;;;;;;18.17;53.84;99131.69;5026023;28;20356;-75
2023/05/06 07:20:24;;;;;;;2.50;1.70;;;;;;;18.27;53.45;99129.88;5025833;28;20066;-75
2023/05/06 07:22:53;;;;;;;3.80;1.70;;;;;;;18.33;53.51;99131.16;5025925;28;20050;-76
2023/05/06 07:25:20;;;;;;;2.85;1.73;;;;;;;18.40;53.33;99131.44;5026217;28;20293;-76
2023/05/06 07:27:46;;;;;;;2.42;1.40;;;;;;;18.58;52.75;99129.78;5026152;28;20038;-76
2023/05/06 07:30:14;;;;;;;2.40;1.48;;;;;;;18.65;52.64;99128.25;5025146;28;20049;-76
2023/05/06 07:32:40;;;;;;;3.55;1.70;;;;;;;18.80;52.26;99124.13;5023998;28;20042;-76
2023/05/06 07:35:08;;;;;;;2.53;1.80;;;;;;;19.02;51.82;99123.00;5008480;28;20060;-75
2023/05/06 07:37:35;;;;;;;3.40;1.90;;;;;;;18.53;51.27;99003.25;5025718;28;20076;-76
2023/05/06 07:40:04;;;;;;;2.65;1.75;;;;;;;19.56;50.67;99124.16;5024902;28;20046;-75
2023/05/06 07:42:31;;;;;;;2.47;1.60;;;;;;;19.91;49.92;99115.41;5025941;28;20065;-76
2023/05/06 07:44:58;;;;;;;3.13;1.80;;;;;;;20.27;49.39;99110.13;5025631;28;20051;-76
2023/05/06 07:47:30;;;;;;;4.28;2.33;;;;;;;20.52;48.92;99112.06;5025651;28;20054;-76
2023/05/06 07:49:57;;;;;;;2.80;1.83;;;;;;;20.70;48.63;99112.91;5025028;28;20038;-76
2023/05/06 07:52:24;;;;;;;4.15;2.08;;;;;;;20.72;48.07;99108.19;5025474;28;20060;-76
2023/05/06 07:54:51;;;;;;;3.15;1.98;;;;;;;20.87;48.17;99110.34;5025590;28;20053;-75
2023/05/06 07:57:19;;;;;;;2.40;1.55;;;;;;;21.09;47.49;99109.88;5025557;28;20045;-76
2023/05/06 07:59:47;;;;;;;2.28;1.50;;;;;;;21.36;47.06;99096.25;5025497;28;20045;-76
2023/05/06 08:02:15;;;;;;;3.30;1.95;;;;;;;21.62;47.04;99092.69;5025760;28;20175;-75
2023/05/06 08:04:41;;;;;;;3.00;1.58;;;;;;;21.89;46.77;99099.75;5026071;28;20069;-76
2023/05/06 08:07:08;;;;;;;3.03;1.67;;;;;;;21.82;46.50;99066.31;5026013;28;20050;-76
2023/05/06 08:09:35;;;;;;;3.00;2.00;;;;;;;22.09;46.38;99088.50;5025332;28;20057;-76
2023/05/06 08:12:02;;;;;;;3.35;2.03;;;;;;;22.12;46.05;99099.97;5025137;28;20042;-76
2023/05/06 08:14:30;;;;;;;3.53;1.80;;;;;;;22.09;45.85;99101.16;5025697;28;20049;-75
2023/05/06 08:16:57;;;;;;;4.22;1.70;;;;;;;21.88;46.19;99093.50;5025880;28;20042;-76
2023/05/06 08:19:25;;;;;;;2.92;1.83;;;;;;;21.65;46.77;99098.59;5024629;28;20278;-76
2023/05/06 08:21:52;;;;;;;3.10;1.60;;;;;;;21.42;46.88;99111.78;5024740;28;20129;-76
2023/05/06 08:24:18;;;;;;;3.28;1.60;;;;;;;21.21;47.17;99097.84;5029206;28;20037;-76
2023/05/06 08:26:45;;;;;;;2.95;1.85;;;;;;;20.95;47.81;99070.84;5028183;28;20037;-76
2023/05/06 08:29:12;;;;;;;3.22;1.85;;;;;;;21.17;47.48;99109.94;5027983;28;20054;-75
2023/05/06 08:31:40;;;;;;;2.35;1.65;;;;;;;21.13;47.15;99105.88;5029028;28;20046;-76
2023/05/06 08:34:07;;;;;;;2.53;1.50;;;;;;;21.03;47.33;99115.91;5028138;28;20233;-76
2023/05/06 08:36:33;;;;;;;2.60;1.80;;;;;;;20.90;47.54;99118.13;5029512;28;20100;-76
2023/05/06 08:39:00;;;;;;;2.60;1.85;;;;;;;20.77;47.54;99124.75;5029160;28;20046;-76
2023/05/06 08:41:30;;;;;;;2.90;1.50;;;;;;;20.03;47.50;99009.28;5029148;28;20303;-76
2023/05/06 08:43:58;;;;;;;2.10;1.48;;;;;;;19.96;47.57;99024.34;5029238;28;20137;-76
2023/05/06 08:46:26;;;;;;;2.30;1.38;;;;;;;20.47;47.93;99114.34;5029253;28;20043;-76
2023/05/06 08:48:54;;;;;;;7.55;1.80;;;;;;;20.37;47.63;99124.34;5028907;28;20393;-75
2023/05/06 08:51:27;;;;;;;3.13;1.70;;;;;;;20.26;47.42;99111.97;5027520;28;20186;-75
2023/05/06 08:53:55;;;;;;;2.70;1.60;;;;;;;20.11;48.41;99111.59;5011565;28;20038;-76
2023/05/06 08:56:28;;;;;;;2.55;1.60;;;;;;;18.12;48.24;98781.78;5027692;28;20073;-76
2023/05/06 08:58:57;;;;;;;3.63;2.10;;;;;;;20.02;48.49;99106.28;5028175;28;20037;-75
2023/05/06 09:01:25;;;;;;;3.00;1.77;;;;;;;20.14;48.54;99121.22;5028244;28;20096;-76
2023/05/06 09:03:52;;;;;;;3.05;1.98;;;;;;;20.11;48.51;99121.50;5028530;28;20171;-76
2023/05/06 09:06:21;;;;;;;2.50;1.50;;;;;;;20.15;48.16;99115.69;5028934;28;20069;-75
2023/05/06 09:08:47;;;;;;;5.53;2.10;;;;;;;20.31;48.19;99111.50;5028671;28;20168;-75
2023/05/06 09:11:22;;;;;;;5.05;1.73;;;;;;;20.27;47.21;99078.66;5028788;28;20042;-76
2023/05/06 09:13:49;;;;;;;2.88;1.90;;;;;;;20.73;47.48;99117.13;5028415;28;20249;-76
2023/05/06 09:16:33;;;;;;;2.97;1.70;;;;;;;20.97;46.39;99106.56;5028188;28;20033;-76
2023/05/06 09:19:00;;;;;;;3.03;1.70;;;;;;;21.14;46.49;99113.78;5028179;28;20241;-75
2023/05/06 09:21:34;;;;;;;6.10;2.00;;;;;;;21.25;45.93;99103.75;5028382;28;20065;-76
2023/05/06 09:24:02;;;;;;;4.28;2.40;;;;;;;21.35;46.19;99118.81;5028223;28;20229;-75
2023/05/06 09:26:29;;;;;;;2.40;1.50;;;;;;;21.35;45.87;99121.50;5028477;28;20195;-75
2023/05/06 09:28:56;;;;;;;2.13;1.50;;;;;;;21.32;46.00;99120.97;5027001;28;20096;-76
2023/05/06 09:31:24;;;;;;;2.50;1.80;;;;;;;21.23;45.71;99116.53;5027718;28;20054;-76
2023/05/06 09:33:51;;;;;;;2.67;1.73;;;;;;;21.13;45.75;99114.78;5027053;28;20049;-75
2023/05/06 09:36:18;;;;;;;2.60;1.48;;;;;;;21.02;46.00;99098.00;5028347;28;20044;-76
2023/05/06 09:38:46;;;;;;;2.47;1.63;;;;;;;21.08;45.93;99110.88;5028181;28;20053;-76
2023/05/06 09:41:15;;;;;;;3.22;1.73;;;;;;;21.05;46.06;99108.50;5027960;28;20084;-75
2023/05/06 09:43:43;;;;;;;4.20;1.70;;;;;;;21.02;46.27;99108.78;5027527;28;20087;-75
2023/05/06 09:46:11;;;;;;;3.63;1.88;;;;;;;21.02;45.74;99111.47;5026711;28;20053;-76
2023/05/06 09:48:38;;;;;;;2.50;1.70;;;;;;;20.97;46.16;99108.41;5027824;28;20037;-76
2023/05/06 09:51:06;;;;;;;2.97;1.63;;;;;;;20.30;46.49;99004.88;5026678;28;20088;-76
2023/05/06 09:53:34;;;;;;;2.83;1.70;;;;;;;20.91;46.00;99109.88;5027462;28;20033;-75
2023/05/06 09:56:05;;;;;;;2.60;1.70;;;;;;;20.88;45.97;99107.50;5027877;28;20052;-76
2023/05/06 09:58:32;;;;;;;3.10;1.80;;;;;;;20.75;45.92;99089.03;5027282;28;20309;-76
2023/05/06 10:01:00;;;;;;;2.78;1.70;;;;;;;20.39;45.90;99036.22;5027317;28;20294;-76
2023/05/06 10:03:27;;;;;;;2.38;1.55;;;;;;;20.82;45.97;99114.34;5027252;28;20061;-75
2023/05/06 10:05:56;;;;;;;3.28;1.60;;;;;;;20.53;45.93;99050.97;5027300;28;20105;-76
2023/05/06 10:08:24;;;;;;;3.08;1.80;;;;;;;20.86;45.97;99100.56;5027103;28;20251;-76
2023/05/06 10:10:51;;;;;;;3.28;1.42;;;;;;;20.92;46.11;99099.94;5026573;28;20077;-76
2023/05/06 10:13:21;;;;;;;2.80;1.73;;;;;;;20.56;45.95;99024.59;5027546;28;20043;-75
2023/05/06 10:15:50;;;;;;;3.17;2.00;;;;;;;21.12;45.96;99086.16;5027007;28;20242;-76
2023/05/06 10:18:18;;;;;;;3.42;1.80;;;;;;;21.31;45.76;99092.34;5026973;28;20042;-76
2023/05/06 10:20:46;;;;;;;2.70;1.80;;;;;;;21.42;45.60;99092.91;5026876;28;20069;-76
2023/05/06 10:23:23;;;;;;;2.88;1.92;;;;;;;21.53;45.19;99083.69;5010002;28;20073;-75
2023/05/06 10:25:53;;;;;;;2.60;1.70;;;;;;;21.58;45.46;99091.31;5027052;28;20073;-76
2023/05/06 10:28:23;;;;;;;3.03;1.85;;;;;;;21.57;44.91;99084.22;5027437;28;20281;-76
2023/05/06 10:30:51;;;;;;;2.90;2.20;;;;;;;21.63;45.56;99080.88;5026787;28;20046;-76
2023/05/06 10:33:20;;;;;;;2.90;1.85;;;;;;;21.72;45.33;99074.50;5026698;28;20290;-76
2023/05/06 10:35:53;;;;;;;2.92;1.88;;;;;;;21.80;45.11;99069.19;5025857;28;20048;-75
2023/05/06 10:38:25;;;;;;;3.35;1.90;;;;;;;21.82;44.78;99061.78;5027206;28;20048;-75
2023/05/06 10:40:53;;;;;;;3.15;1.85;;;;;;;21.83;44.85;99063.47;5026927;28;20128;-76
2023/05/06 10:43:22;;;;;;;2.75;1.60;;;;;;;21.87;44.91;99064.81;5027175;28;20049;-75
2023/05/06 10:46:07;;;;;;;3.50;1.60;;;;;;;21.89;44.30;99048.47;5026188;28;20045;-76
2023/05/06 10:48:35;;;;;;;2.45;1.65;;;;;;;21.90;45.04;99042.06;5026988;28;20046;-76
2023/05/06 10:51:21;;;;;;;2.72;1.92;;;;;;;21.64;43.73;98993.59;5025435;28;20084;-76
2023/05/06 10:53:56;;;;;;;2.50;1.73;;;;;;;21.88;44.08;99046.78;5026708;28;20103;-75
2023/05/06 10:56:23;;;;;;;3.03;1.55;;;;;;;21.88;44.66;99044.94;5026362;28;20052;-75
2023/05/06 10:58:52;;;;;;;3.65;1.88;;;;;;;21.85;44.50;99047.97;5025497;28;20046;-75
2023/05/06 11:01:22;;;;;;;2.88;1.75;;;;;;;21.82;44.74;99045.59;5026921;28;20175;-75
2023/05/06 11:03:51;;;;;;;2.67;1.50;;;;;;;21.54;44.70;99003.66;5026240;28;20033;-75
2023/05/06 11:06:35;;;;;;;2.30;1.50;;;;;;;21.82;43.67;99034.81;5025353;28;20297;-75
2023/05/06 11:09:03;;;;;;;2.97;1.90;;;;;;;21.88;44.63;99027.91;5025468;28;20056;-74
2023/05/06 11:11:51;;;;;;;2.80;1.85;;;;;;;21.95;44.10;99010.06;5026440;28;20045;-74
2023/05/06 11:14:37;;;;;;;5.80;4.47;;;;;;;22.13;42.83;99037.75;5026446;28;20048;-73
2023/05/06 11:17:06;;;;;;;8.18;5.30;;;;;;;22.17;43.64;99027.47;5026546;28;20054;-73
2023/05/06 11:19:34;;;;;;;6.80;4.65;;;;;;;22.28;43.27;99032.53;5025010;28;20054;-73
2023/05/06 11:22:02;;;;;;;4.50;3.53;;;;;;;22.34;43.36;99023.78;5024848;28;20045;-73
2023/05/06 11:24:31;;;;;;;4.32;2.92;;;;;;;22.38;43.07;99019.72;5026362;28;20037;-73
2023/05/06 11:27:00;;;;;;;4.07;2.83;;;;;;;22.25;43.05;99006.72;5026310;28;20080;-73
2023/05/06 11:29:26;;;;;;;5.93;3.15;;;;;;;22.39;43.32;99027.66;5026174;28;20307;-73
2023/05/06 11:31:54;;;;;;;4.97;2.88;;;;;;;22.42;43.23;99027.34;5025736;28;20244;-74
2023/05/06 11:34:27;;;;;;;4.45;3.15;;;;;;;22.47;43.41;99028.72;5026116;28;20046;-73
2023/05/06 11:37:01;;;;;;;6.35;3.85;;;;;;;22.42;42.70;99034.63;5025626;28;20092;-73
2023/05/06 11:39:29;;;;;;;3.72;2.50;;;;;;;22.41;43.21;99031.06;5025409;28;20057;-73